ENT4801 EPWA-DTNH
Flight info
| Callsign | ENT4801 |
|---|---|
| Flight time | 2h 56m |
| Altitude | 38000 |
| Route | N0441F380 EVINA DCT NAVUR N744 TUSIN DCT MIKOV DCT BAXON/N0437F370 DCT GOTMO DCT PININ DCT TUNEX/N0353F230 UM738 CBN G727 ATLEL ATLEL1E |
| Aircraft | B738/M-SDE2E3FGHIRWXY/LB1 |
Departure
| Time | 2026-05-07 08:31 |
|---|---|
| Airport | Warsaw Chopin Airport (EPWA) |
Arrival
| Time | 2026-05-07 11:27 |
|---|---|
| Airport | Enfidha - Hammamet International Airport (DTNH) |
| Time | Latitude | Longitude | Altitude | Speed | Heading |
|---|---|---|---|---|---|
| 2026-05-07 07:52 | 52.17004 | 20.96843 | 338 ft | 0 kts | 276° |
| 2026-05-07 08:26 | 52.17005 | 20.96840 | 338 ft | 1 kts | 276° |
| 2026-05-07 08:27 | 52.17000 | 20.96778 | 338 ft | 9 kts | 240° |
| 2026-05-07 08:27 | 52.16946 | 20.96785 | 334 ft | 8 kts | 151° |
| 2026-05-07 08:27 | 52.16892 | 20.96834 | 338 ft | 9 kts | 151° |
| 2026-05-07 08:27 | 52.16828 | 20.96888 | 338 ft | 12 kts | 153° |
| 2026-05-07 08:28 | 52.16742 | 20.96962 | 336 ft | 14 kts | 151° |
| 2026-05-07 08:28 | 52.16663 | 20.97052 | 336 ft | 14 kts | 125° |
| 2026-05-07 08:28 | 52.16625 | 20.97190 | 335 ft | 13 kts | 113° |
| 2026-05-07 08:28 | 52.16587 | 20.97322 | 335 ft | 13 kts | 115° |
| 2026-05-07 08:29 | 52.16552 | 20.97452 | 336 ft | 12 kts | 114° |
| 2026-05-07 08:29 | 52.16516 | 20.97578 | 334 ft | 12 kts | 115° |
| 2026-05-07 08:29 | 52.16481 | 20.97700 | 335 ft | 12 kts | 115° |
| 2026-05-07 08:29 | 52.16444 | 20.97800 | 337 ft | 9 kts | 148° |
| 2026-05-07 08:30 | 52.16383 | 20.97780 | 336 ft | 9 kts | 203° |
| 2026-05-07 08:30 | 52.16325 | 20.97738 | 334 ft | 9 kts | 205° |
| 2026-05-07 08:30 | 52.16302 | 20.97684 | 333 ft | 7 kts | 289° |
| 2026-05-07 08:30 | 52.16383 | 20.97396 | 335 ft | 62 kts | 294° |
| 2026-05-07 08:31 | 52.16663 | 20.96389 | 339 ft | 130 kts | 294° |
| 2026-05-07 08:31 | 52.17094 | 20.94869 | 718 ft | 154 kts | 294° |
| 2026-05-07 08:31 | 52.17533 | 20.93267 | 1547 ft | 156 kts | 295° |
| 2026-05-07 08:31 | 52.17987 | 20.91633 | 2174 ft | 163 kts | 294° |
| 2026-05-07 08:32 | 52.18166 | 20.89842 | 2810 ft | 163 kts | 254° |
| 2026-05-07 08:32 | 52.17890 | 20.88081 | 3571 ft | 161 kts | 257° |
| 2026-05-07 08:32 | 52.17648 | 20.86183 | 3954 ft | 186 kts | 257° |
| 2026-05-07 08:32 | 52.17106 | 20.84157 | 4148 ft | 209 kts | 225° |
| 2026-05-07 08:33 | 52.15840 | 20.82764 | 4375 ft | 233 kts | 211° |
| 2026-05-07 08:33 | 52.14372 | 20.81347 | 4734 ft | 253 kts | 211° |
| 2026-05-07 08:33 | 52.12841 | 20.79852 | 5434 ft | 259 kts | 212° |
| 2026-05-07 08:33 | 52.11290 | 20.78321 | 6259 ft | 261 kts | 212° |
| 2026-05-07 08:34 | 52.09732 | 20.76765 | 7039 ft | 264 kts | 212° |
| 2026-05-07 08:34 | 52.08168 | 20.75192 | 7805 ft | 265 kts | 213° |
| 2026-05-07 08:34 | 52.06595 | 20.73598 | 8595 ft | 267 kts | 213° |
| 2026-05-07 08:34 | 52.05014 | 20.71989 | 9361 ft | 270 kts | 213° |
| 2026-05-07 08:35 | 52.03414 | 20.70357 | 10102 ft | 273 kts | 213° |
| 2026-05-07 08:35 | 52.01752 | 20.68655 | 10358 ft | 294 kts | 213° |
| 2026-05-07 08:35 | 51.99957 | 20.66814 | 10540 ft | 316 kts | 213° |
| 2026-05-07 08:35 | 51.98052 | 20.64861 | 10907 ft | 329 kts | 213° |
| 2026-05-07 08:36 | 51.96099 | 20.62859 | 11543 ft | 334 kts | 213° |
| 2026-05-07 08:36 | 51.94158 | 20.60873 | 12293 ft | 335 kts | 213° |
| 2026-05-07 08:36 | 51.92177 | 20.58846 | 13046 ft | 337 kts | 213° |
| 2026-05-07 08:36 | 51.90183 | 20.56806 | 13772 ft | 341 kts | 213° |
| 2026-05-07 08:37 | 51.88169 | 20.54748 | 14437 ft | 344 kts | 213° |
| 2026-05-07 08:37 | 51.86137 | 20.52673 | 15132 ft | 346 kts | 213° |
| 2026-05-07 08:37 | 51.84090 | 20.50584 | 15829 ft | 349 kts | 213° |
| 2026-05-07 08:37 | 51.82023 | 20.48477 | 16512 ft | 353 kts | 213° |
| 2026-05-07 08:38 | 51.79936 | 20.46352 | 17191 ft | 356 kts | 213° |
| 2026-05-07 08:38 | 51.77829 | 20.44208 | 17855 ft | 360 kts | 213° |
| 2026-05-07 08:38 | 51.75701 | 20.42046 | 18471 ft | 363 kts | 213° |
| 2026-05-07 08:38 | 51.73557 | 20.39870 | 19114 ft | 365 kts | 213° |
| 2026-05-07 08:39 | 51.71403 | 20.37687 | 19771 ft | 366 kts | 213° |
| 2026-05-07 08:39 | 51.69241 | 20.35497 | 20383 ft | 368 kts | 213° |
| 2026-05-07 08:39 | 51.67065 | 20.33296 | 20984 ft | 370 kts | 213° |
| 2026-05-07 08:39 | 51.64875 | 20.31083 | 21595 ft | 373 kts | 213° |
| 2026-05-07 08:40 | 51.62670 | 20.28858 | 22184 ft | 375 kts | 213° |
| 2026-05-07 08:40 | 51.60453 | 20.26623 | 22749 ft | 377 kts | 213° |
| 2026-05-07 08:40 | 51.58222 | 20.24376 | 23289 ft | 379 kts | 213° |
| 2026-05-07 08:40 | 51.55977 | 20.22119 | 23754 ft | 382 kts | 213° |
| 2026-05-07 08:41 | 51.53724 | 20.19856 | 24195 ft | 384 kts | 213° |
| 2026-05-07 08:41 | 51.51453 | 20.17577 | 24635 ft | 386 kts | 213° |
| 2026-05-07 08:41 | 51.49196 | 20.15316 | 25054 ft | 388 kts | 213° |
| 2026-05-07 08:41 | 51.46906 | 20.13023 | 25512 ft | 388 kts | 213° |
| 2026-05-07 08:42 | 51.44607 | 20.10726 | 25931 ft | 390 kts | 213° |
| 2026-05-07 08:42 | 51.42293 | 20.08416 | 26320 ft | 393 kts | 212° |
| 2026-05-07 08:42 | 51.39968 | 20.06096 | 26716 ft | 395 kts | 212° |
| 2026-05-07 08:42 | 51.37628 | 20.03766 | 27114 ft | 397 kts | 212° |
| 2026-05-07 08:43 | 51.35277 | 20.01426 | 27502 ft | 399 kts | 212° |
| 2026-05-07 08:43 | 51.32912 | 19.99077 | 27862 ft | 401 kts | 212° |
| 2026-05-07 08:43 | 51.30535 | 19.96718 | 28224 ft | 403 kts | 212° |
| 2026-05-07 08:43 | 51.28147 | 19.94351 | 28572 ft | 405 kts | 212° |
| 2026-05-07 08:44 | 51.25752 | 19.91980 | 28974 ft | 405 kts | 212° |
| 2026-05-07 08:44 | 51.23352 | 19.89607 | 29387 ft | 407 kts | 212° |
| 2026-05-07 08:44 | 51.20942 | 19.87228 | 29741 ft | 408 kts | 212° |
| 2026-05-07 08:44 | 51.18534 | 19.84853 | 30154 ft | 406 kts | 212° |
| 2026-05-07 08:45 | 51.16134 | 19.82489 | 30601 ft | 403 kts | 212° |
| 2026-05-07 08:45 | 51.13754 | 19.80148 | 31033 ft | 401 kts | 212° |
| 2026-05-07 08:45 | 51.11384 | 19.77818 | 31393 ft | 400 kts | 212° |
| 2026-05-07 08:45 | 51.09015 | 19.75494 | 31735 ft | 400 kts | 212° |
| 2026-05-07 08:46 | 51.06652 | 19.73178 | 32108 ft | 398 kts | 212° |
| 2026-05-07 08:46 | 51.04331 | 19.70905 | 32514 ft | 396 kts | 212° |
| 2026-05-07 08:46 | 51.01984 | 19.68610 | 32877 ft | 395 kts | 212° |
| 2026-05-07 08:46 | 50.99645 | 19.66326 | 33213 ft | 394 kts | 212° |
| 2026-05-07 08:47 | 50.97311 | 19.64048 | 33575 ft | 393 kts | 212° |
| 2026-05-07 08:47 | 50.94985 | 19.61782 | 33939 ft | 392 kts | 212° |
| 2026-05-07 08:47 | 50.92665 | 19.59524 | 34204 ft | 391 kts | 212° |
| 2026-05-07 08:47 | 50.90338 | 19.57262 | 34395 ft | 393 kts | 212° |
| 2026-05-07 08:48 | 50.88003 | 19.54995 | 34604 ft | 394 kts | 212° |
| 2026-05-07 08:48 | 50.85666 | 19.52728 | 34847 ft | 394 kts | 212° |
| 2026-05-07 08:48 | 50.83328 | 19.50464 | 35117 ft | 394 kts | 212° |
| 2026-05-07 08:48 | 50.80986 | 19.48197 | 35330 ft | 395 kts | 212° |
| 2026-05-07 08:49 | 50.78640 | 19.45930 | 35526 ft | 396 kts | 212° |
| 2026-05-07 08:49 | 50.76291 | 19.43663 | 35759 ft | 396 kts | 212° |
| 2026-05-07 08:49 | 50.73942 | 19.41399 | 35980 ft | 396 kts | 212° |
| 2026-05-07 08:49 | 50.71590 | 19.39134 | 36178 ft | 396 kts | 212° |
| 2026-05-07 08:50 | 50.69233 | 19.36867 | 36372 ft | 397 kts | 212° |
| 2026-05-07 08:50 | 50.66906 | 19.34632 | 36591 ft | 397 kts | 212° |
| 2026-05-07 08:50 | 50.64550 | 19.32372 | 36792 ft | 397 kts | 212° |
| 2026-05-07 08:50 | 50.62187 | 19.30107 | 37004 ft | 398 kts | 212° |
| 2026-05-07 08:51 | 50.59822 | 19.27844 | 37215 ft | 398 kts | 212° |
| 2026-05-07 08:51 | 50.57457 | 19.25583 | 37423 ft | 398 kts | 212° |
| 2026-05-07 08:51 | 50.55084 | 19.23316 | 37605 ft | 398 kts | 212° |
| 2026-05-07 08:51 | 50.52712 | 19.21054 | 37784 ft | 399 kts | 212° |
| 2026-05-07 08:52 | 50.50340 | 19.18795 | 37906 ft | 400 kts | 212° |
| 2026-05-07 08:52 | 50.47950 | 19.16520 | 37905 ft | 402 kts | 212° |
| 2026-05-07 08:52 | 50.43173 | 19.11984 | 37905 ft | 400 kts | 212° |
| 2026-05-07 08:53 | 50.38432 | 19.07492 | 37909 ft | 397 kts | 212° |
| 2026-05-07 08:53 | 50.33718 | 19.03036 | 37906 ft | 394 kts | 212° |
| 2026-05-07 08:54 | 50.29032 | 18.98617 | 37909 ft | 393 kts | 211° |
| 2026-05-07 08:54 | 50.24349 | 18.94211 | 37884 ft | 393 kts | 211° |
| 2026-05-07 08:55 | 50.19667 | 18.89815 | 37899 ft | 394 kts | 211° |
| 2026-05-07 08:55 | 50.15756 | 18.86151 | 37913 ft | 395 kts | 211° |
| 2026-05-07 08:56 | 50.11037 | 18.81739 | 37910 ft | 397 kts | 211° |
| 2026-05-07 08:56 | 50.06280 | 18.77303 | 37907 ft | 399 kts | 211° |
| 2026-05-07 08:57 | 50.01497 | 18.72852 | 37896 ft | 401 kts | 211° |
| 2026-05-07 08:57 | 49.96696 | 18.68395 | 37908 ft | 403 kts | 211° |
| 2026-05-07 08:58 | 49.91895 | 18.63946 | 37911 ft | 405 kts | 211° |
| 2026-05-07 08:58 | 49.87052 | 18.59459 | 37910 ft | 406 kts | 213° |
| 2026-05-07 08:59 | 49.82776 | 18.53797 | 37905 ft | 406 kts | 229° |
| 2026-05-07 08:59 | 49.79223 | 18.47001 | 37912 ft | 406 kts | 230° |
| 2026-05-07 09:00 | 49.75683 | 18.40213 | 37912 ft | 405 kts | 230° |
| 2026-05-07 09:00 | 49.72136 | 18.33468 | 37926 ft | 404 kts | 229° |
| 2026-05-07 09:01 | 49.68584 | 18.26752 | 37919 ft | 403 kts | 229° |
| 2026-05-07 09:01 | 49.65031 | 18.20060 | 37909 ft | 403 kts | 229° |
| 2026-05-07 09:02 | 49.61481 | 18.13390 | 37911 ft | 402 kts | 229° |
| 2026-05-07 09:02 | 49.57957 | 18.06786 | 37915 ft | 401 kts | 229° |
| 2026-05-07 09:03 | 49.54386 | 18.00111 | 37915 ft | 401 kts | 229° |
| 2026-05-07 09:03 | 49.50835 | 17.93491 | 37926 ft | 401 kts | 229° |
| 2026-05-07 09:04 | 49.47308 | 17.86931 | 37917 ft | 401 kts | 229° |
| 2026-05-07 09:04 | 49.43748 | 17.80326 | 37932 ft | 401 kts | 229° |
| 2026-05-07 09:05 | 49.40187 | 17.73736 | 37927 ft | 401 kts | 229° |
| 2026-05-07 09:05 | 49.36626 | 17.67163 | 37941 ft | 401 kts | 229° |
| 2026-05-07 09:06 | 49.33053 | 17.60583 | 37938 ft | 401 kts | 229° |
| 2026-05-07 09:06 | 49.29475 | 17.54011 | 37923 ft | 402 kts | 229° |
| 2026-05-07 09:07 | 49.25888 | 17.47439 | 37943 ft | 402 kts | 229° |
| 2026-05-07 09:07 | 49.22297 | 17.40875 | 37938 ft | 402 kts | 229° |
| 2026-05-07 09:08 | 49.18704 | 17.34325 | 37938 ft | 402 kts | 229° |
| 2026-05-07 09:08 | 49.15110 | 17.27788 | 37942 ft | 401 kts | 229° |
| 2026-05-07 09:09 | 49.11537 | 17.21305 | 37938 ft | 401 kts | 229° |
| 2026-05-07 09:09 | 49.07799 | 17.15015 | 37920 ft | 400 kts | 217° |
| 2026-05-07 09:10 | 49.03165 | 17.10332 | 37948 ft | 400 kts | 211° |
| 2026-05-07 09:10 | 48.98319 | 17.06129 | 37944 ft | 400 kts | 210° |
| 2026-05-07 09:11 | 48.93456 | 17.01989 | 37946 ft | 400 kts | 210° |
| 2026-05-07 09:11 | 48.88602 | 16.97826 | 37946 ft | 400 kts | 211° |
| 2026-05-07 09:12 | 48.83760 | 16.93652 | 37956 ft | 400 kts | 211° |
| 2026-05-07 09:12 | 48.78913 | 16.89471 | 37951 ft | 401 kts | 211° |
| 2026-05-07 09:13 | 48.74062 | 16.85295 | 37953 ft | 401 kts | 211° |
| 2026-05-07 09:13 | 48.69211 | 16.81127 | 37960 ft | 401 kts | 211° |
| 2026-05-07 09:14 | 48.64385 | 16.76990 | 37963 ft | 401 kts | 211° |
| 2026-05-07 09:14 | 48.59518 | 16.72828 | 37960 ft | 402 kts | 211° |
| 2026-05-07 09:15 | 48.54650 | 16.68673 | 37970 ft | 402 kts | 211° |
| 2026-05-07 09:15 | 48.49779 | 16.64527 | 37965 ft | 402 kts | 211° |
| 2026-05-07 09:16 | 48.44902 | 16.60383 | 37982 ft | 402 kts | 211° |
| 2026-05-07 09:16 | 48.40022 | 16.56246 | 37979 ft | 402 kts | 210° |
| 2026-05-07 09:17 | 48.35139 | 16.52116 | 37981 ft | 402 kts | 210° |
| 2026-05-07 09:17 | 48.30265 | 16.48003 | 37975 ft | 402 kts | 210° |
| 2026-05-07 09:18 | 48.25392 | 16.43900 | 37987 ft | 401 kts | 210° |
| 2026-05-07 09:18 | 48.20554 | 16.39836 | 37991 ft | 401 kts | 210° |
| 2026-05-07 09:19 | 48.15689 | 16.35757 | 37989 ft | 401 kts | 210° |
| 2026-05-07 09:19 | 48.10821 | 16.31685 | 37979 ft | 401 kts | 210° |
| 2026-05-07 09:20 | 48.05948 | 16.27618 | 37966 ft | 400 kts | 210° |
| 2026-05-07 09:20 | 48.01084 | 16.23567 | 37977 ft | 400 kts | 210° |
| 2026-05-07 09:21 | 47.96219 | 16.19523 | 37969 ft | 400 kts | 210° |
| 2026-05-07 09:21 | 47.91363 | 16.15497 | 37974 ft | 399 kts | 210° |
| 2026-05-07 09:22 | 47.86505 | 16.11477 | 37976 ft | 399 kts | 210° |
| 2026-05-07 09:22 | 47.81671 | 16.07486 | 37976 ft | 399 kts | 210° |
| 2026-05-07 09:23 | 47.76808 | 16.03480 | 37976 ft | 399 kts | 210° |
| 2026-05-07 09:23 | 47.71940 | 15.99478 | 37979 ft | 399 kts | 210° |
| 2026-05-07 09:24 | 47.67077 | 15.95489 | 37976 ft | 399 kts | 210° |
| 2026-05-07 09:24 | 47.62215 | 15.91508 | 37966 ft | 399 kts | 210° |
| 2026-05-07 09:25 | 47.57355 | 15.87539 | 37966 ft | 399 kts | 210° |
| 2026-05-07 09:25 | 47.52496 | 15.83578 | 37970 ft | 399 kts | 210° |
| 2026-05-07 09:26 | 47.47629 | 15.79620 | 37974 ft | 399 kts | 210° |
| 2026-05-07 09:26 | 47.42795 | 15.75697 | 37972 ft | 399 kts | 210° |
| 2026-05-07 09:27 | 47.37920 | 15.71748 | 37966 ft | 400 kts | 210° |
| 2026-05-07 09:28 | 47.30583 | 15.65821 | 38054 ft | 402 kts | 210° |
| 2026-05-07 09:28 | 47.28137 | 15.63850 | 38387 ft | 400 kts | 210° |
| 2026-05-07 09:28 | 47.25696 | 15.61884 | 38500 ft | 402 kts | 210° |
| 2026-05-07 09:29 | 47.20756 | 15.57913 | 38671 ft | 406 kts | 210° |
| 2026-05-07 09:29 | 47.18274 | 15.55920 | 38802 ft | 406 kts | 210° |
| 2026-05-07 09:29 | 47.15793 | 15.53932 | 38907 ft | 406 kts | 210° |
| 2026-05-07 09:30 | 47.10809 | 15.49943 | 38966 ft | 410 kts | 210° |
| 2026-05-07 09:30 | 47.05790 | 15.45933 | 38969 ft | 411 kts | 210° |
| 2026-05-07 09:31 | 47.00761 | 15.41926 | 38966 ft | 412 kts | 210° |
| 2026-05-07 09:31 | 46.95727 | 15.37923 | 38962 ft | 412 kts | 210° |
| 2026-05-07 09:32 | 46.90693 | 15.33928 | 38968 ft | 411 kts | 210° |
| 2026-05-07 09:32 | 46.85658 | 15.29942 | 38967 ft | 411 kts | 210° |
| 2026-05-07 09:33 | 46.80656 | 15.25989 | 38965 ft | 411 kts | 210° |
| 2026-05-07 09:33 | 46.75601 | 15.22003 | 38977 ft | 410 kts | 210° |
| 2026-05-07 09:34 | 46.70615 | 15.18081 | 38974 ft | 410 kts | 210° |
| 2026-05-07 09:34 | 46.65597 | 15.14141 | 38984 ft | 409 kts | 210° |
| 2026-05-07 09:35 | 46.60586 | 15.10215 | 38979 ft | 408 kts | 210° |
| 2026-05-07 09:35 | 46.55588 | 15.06308 | 38983 ft | 406 kts | 210° |
| 2026-05-07 09:36 | 46.50609 | 15.02423 | 38977 ft | 406 kts | 210° |
| 2026-05-07 09:36 | 46.45647 | 14.98561 | 38990 ft | 404 kts | 210° |
| 2026-05-07 09:37 | 46.40698 | 14.94716 | 38985 ft | 403 kts | 210° |
| 2026-05-07 09:37 | 46.35799 | 14.90917 | 39004 ft | 400 kts | 210° |
| 2026-05-07 09:38 | 46.30887 | 14.87117 | 38998 ft | 400 kts | 210° |
| 2026-05-07 09:38 | 46.25967 | 14.83317 | 38979 ft | 401 kts | 210° |
| 2026-05-07 09:39 | 46.21047 | 14.79526 | 38980 ft | 402 kts | 210° |
| 2026-05-07 09:39 | 46.16097 | 14.75719 | 38991 ft | 404 kts | 210° |
| 2026-05-07 09:40 | 46.11110 | 14.71892 | 38997 ft | 406 kts | 210° |
| 2026-05-07 09:40 | 46.06103 | 14.68058 | 38998 ft | 408 kts | 210° |
| 2026-05-07 09:41 | 46.01074 | 14.64215 | 38994 ft | 410 kts | 210° |
| 2026-05-07 09:41 | 45.96027 | 14.60367 | 38997 ft | 411 kts | 210° |
| 2026-05-07 09:42 | 45.91000 | 14.56541 | 39002 ft | 412 kts | 210° |
| 2026-05-07 09:42 | 45.85920 | 14.52682 | 39020 ft | 415 kts | 210° |
| 2026-05-07 09:43 | 45.80814 | 14.48813 | 38986 ft | 411 kts | 210° |
| 2026-05-07 09:43 | 45.75813 | 14.45034 | 38994 ft | 404 kts | 210° |
| 2026-05-07 09:44 | 45.70837 | 14.41277 | 39009 ft | 404 kts | 210° |
| 2026-05-07 09:44 | 45.66696 | 14.38157 | 39017 ft | 405 kts | 210° |
| 2026-05-07 09:45 | 45.60885 | 14.33786 | 39006 ft | 406 kts | 210° |
| 2026-05-07 09:45 | 45.55883 | 14.30034 | 39025 ft | 406 kts | 210° |
| 2026-05-07 09:46 | 45.51690 | 14.26895 | 39019 ft | 407 kts | 210° |
| 2026-05-07 09:46 | 45.46668 | 14.23141 | 39011 ft | 407 kts | 210° |
| 2026-05-07 09:47 | 45.41655 | 14.19402 | 39028 ft | 407 kts | 210° |
| 2026-05-07 09:47 | 45.36667 | 14.15688 | 39029 ft | 407 kts | 210° |
| 2026-05-07 09:48 | 45.31634 | 14.11950 | 39032 ft | 409 kts | 210° |
| 2026-05-07 09:48 | 45.26587 | 14.08208 | 39024 ft | 409 kts | 210° |
| 2026-05-07 09:49 | 45.21530 | 14.04466 | 39030 ft | 409 kts | 210° |
| 2026-05-07 09:49 | 45.16474 | 14.00732 | 39026 ft | 410 kts | 210° |
| 2026-05-07 09:50 | 45.11415 | 13.97004 | 39030 ft | 410 kts | 210° |
| 2026-05-07 09:50 | 45.06361 | 13.93287 | 39031 ft | 409 kts | 210° |
| 2026-05-07 09:51 | 45.01312 | 13.89581 | 39027 ft | 409 kts | 210° |
| 2026-05-07 09:51 | 44.96291 | 13.85904 | 39029 ft | 409 kts | 210° |
| 2026-05-07 09:52 | 44.91235 | 13.82207 | 39023 ft | 408 kts | 211° |
| 2026-05-07 09:52 | 44.86198 | 13.78532 | 39018 ft | 408 kts | 211° |
| 2026-05-07 09:53 | 44.81161 | 13.74865 | 39018 ft | 406 kts | 211° |
| 2026-05-07 09:53 | 44.76151 | 13.71224 | 39020 ft | 405 kts | 211° |
| 2026-05-07 09:54 | 44.71149 | 13.67596 | 39015 ft | 403 kts | 211° |
| 2026-05-07 09:54 | 44.66194 | 13.64008 | 39017 ft | 402 kts | 211° |
| 2026-05-07 09:55 | 44.61225 | 13.60418 | 39019 ft | 401 kts | 211° |
| 2026-05-07 09:55 | 44.56264 | 13.56840 | 39000 ft | 400 kts | 211° |
| 2026-05-07 09:56 | 44.51305 | 13.53270 | 39014 ft | 400 kts | 211° |
| 2026-05-07 09:56 | 44.46354 | 13.49710 | 39020 ft | 400 kts | 211° |
| 2026-05-07 09:57 | 44.41377 | 13.46194 | 39017 ft | 402 kts | 207° |
| 2026-05-07 09:57 | 44.36071 | 13.43567 | 39014 ft | 406 kts | 202° |
| 2026-05-07 09:58 | 44.30696 | 13.41122 | 39020 ft | 407 kts | 202° |
| 2026-05-07 09:58 | 44.25316 | 13.38649 | 39018 ft | 407 kts | 202° |
| 2026-05-07 09:59 | 44.19937 | 13.36148 | 39001 ft | 408 kts | 203° |
| 2026-05-07 09:59 | 44.14584 | 13.33653 | 39006 ft | 409 kts | 203° |
| 2026-05-07 10:00 | 44.09186 | 13.31138 | 39022 ft | 409 kts | 203° |
| 2026-05-07 10:00 | 44.03780 | 13.28625 | 39022 ft | 410 kts | 203° |
| 2026-05-07 10:01 | 43.98366 | 13.26113 | 39019 ft | 410 kts | 203° |
| 2026-05-07 10:01 | 43.92944 | 13.23603 | 39016 ft | 411 kts | 203° |
| 2026-05-07 10:02 | 43.87518 | 13.21095 | 39019 ft | 411 kts | 203° |
| 2026-05-07 10:02 | 43.82088 | 13.18591 | 39002 ft | 411 kts | 203° |
| 2026-05-07 10:03 | 43.76658 | 13.16091 | 39012 ft | 411 kts | 203° |
| 2026-05-07 10:03 | 43.71241 | 13.13602 | 39018 ft | 411 kts | 203° |
| 2026-05-07 10:04 | 43.65844 | 13.11126 | 39005 ft | 411 kts | 203° |
| 2026-05-07 10:04 | 43.60410 | 13.08639 | 39012 ft | 411 kts | 203° |
| 2026-05-07 10:05 | 43.54967 | 13.06152 | 39010 ft | 412 kts | 203° |
| 2026-05-07 10:05 | 43.49525 | 13.03671 | 39020 ft | 412 kts | 203° |
| 2026-05-07 10:06 | 43.44076 | 13.01190 | 39007 ft | 413 kts | 203° |
| 2026-05-07 10:06 | 43.38615 | 12.98709 | 39020 ft | 414 kts | 203° |
| 2026-05-07 10:07 | 43.33143 | 12.96227 | 39021 ft | 414 kts | 203° |
| 2026-05-07 10:07 | 43.27661 | 12.93745 | 39003 ft | 415 kts | 203° |
| 2026-05-07 10:08 | 43.22216 | 12.91286 | 39010 ft | 414 kts | 203° |
| 2026-05-07 10:08 | 43.16632 | 12.89185 | 39024 ft | 417 kts | 198° |
| 2026-05-07 10:09 | 43.10950 | 12.87475 | 39034 ft | 419 kts | 198° |
| 2026-05-07 10:09 | 43.05248 | 12.85775 | 39005 ft | 419 kts | 198° |
| 2026-05-07 10:10 | 42.99571 | 12.84050 | 39022 ft | 417 kts | 198° |
| 2026-05-07 10:10 | 42.93952 | 12.82324 | 39018 ft | 416 kts | 198° |
| 2026-05-07 10:11 | 42.88312 | 12.80587 | 39011 ft | 414 kts | 199° |
| 2026-05-07 10:11 | 42.82691 | 12.78858 | 39025 ft | 412 kts | 199° |
| 2026-05-07 10:12 | 42.77091 | 12.77138 | 39031 ft | 413 kts | 199° |
| 2026-05-07 10:12 | 42.71481 | 12.75418 | 39005 ft | 414 kts | 199° |
| 2026-05-07 10:13 | 42.65865 | 12.73701 | 39024 ft | 414 kts | 199° |
| 2026-05-07 10:13 | 42.60238 | 12.71983 | 39043 ft | 415 kts | 199° |
| 2026-05-07 10:14 | 42.54603 | 12.70267 | 39035 ft | 415 kts | 199° |
| 2026-05-07 10:14 | 42.48962 | 12.68552 | 39039 ft | 415 kts | 199° |
| 2026-05-07 10:15 | 42.43363 | 12.66853 | 39045 ft | 415 kts | 199° |
| 2026-05-07 10:15 | 42.37718 | 12.65142 | 39029 ft | 416 kts | 199° |
| 2026-05-07 10:16 | 42.32077 | 12.63437 | 39022 ft | 415 kts | 199° |
| 2026-05-07 10:16 | 42.26442 | 12.61737 | 39024 ft | 415 kts | 200° |
| 2026-05-07 10:17 | 42.20806 | 12.60038 | 39030 ft | 414 kts | 200° |
| 2026-05-07 10:17 | 42.15190 | 12.58350 | 39027 ft | 413 kts | 200° |
| 2026-05-07 10:18 | 42.09588 | 12.56669 | 39025 ft | 413 kts | 200° |
| 2026-05-07 10:18 | 42.03974 | 12.54985 | 39022 ft | 414 kts | 200° |
| 2026-05-07 10:19 | 41.98384 | 12.53313 | 39024 ft | 414 kts | 200° |
| 2026-05-07 10:19 | 41.92751 | 12.51631 | 39005 ft | 415 kts | 200° |
| 2026-05-07 10:20 | 41.87110 | 12.49950 | 39017 ft | 415 kts | 200° |
| 2026-05-07 10:20 | 41.81470 | 12.48272 | 39027 ft | 416 kts | 200° |
| 2026-05-07 10:21 | 41.75810 | 12.46591 | 39020 ft | 417 kts | 200° |
| 2026-05-07 10:21 | 41.70140 | 12.44911 | 39011 ft | 417 kts | 200° |
| 2026-05-07 10:22 | 41.64482 | 12.43237 | 39016 ft | 417 kts | 200° |
| 2026-05-07 10:22 | 41.58812 | 12.41562 | 39018 ft | 417 kts | 200° |
| 2026-05-07 10:23 | 41.53153 | 12.39894 | 39036 ft | 417 kts | 200° |
| 2026-05-07 10:23 | 41.47492 | 12.38229 | 39017 ft | 416 kts | 200° |
| 2026-05-07 10:24 | 41.41844 | 12.36570 | 39026 ft | 416 kts | 200° |
| 2026-05-07 10:24 | 41.36236 | 12.34925 | 39020 ft | 415 kts | 200° |
| 2026-05-07 10:25 | 41.30599 | 12.33276 | 39016 ft | 415 kts | 200° |
| 2026-05-07 10:25 | 41.24963 | 12.31629 | 39027 ft | 414 kts | 200° |
| 2026-05-07 10:26 | 41.19346 | 12.29991 | 39029 ft | 413 kts | 200° |
| 2026-05-07 10:26 | 41.13726 | 12.28354 | 39028 ft | 413 kts | 200° |
| 2026-05-07 10:27 | 41.08114 | 12.26724 | 39025 ft | 412 kts | 201° |
| 2026-05-07 10:27 | 41.02527 | 12.25102 | 39030 ft | 411 kts | 201° |
| 2026-05-07 10:28 | 40.96945 | 12.23485 | 39032 ft | 410 kts | 201° |
| 2026-05-07 10:28 | 40.91365 | 12.21871 | 39033 ft | 410 kts | 201° |
| 2026-05-07 10:29 | 40.85838 | 12.20276 | 39027 ft | 409 kts | 202° |
| 2026-05-07 10:29 | 40.80287 | 12.18677 | 39026 ft | 408 kts | 202° |
| 2026-05-07 10:30 | 40.71974 | 12.16287 | 39028 ft | 407 kts | 202° |
| 2026-05-07 10:30 | 40.66445 | 12.14702 | 39022 ft | 405 kts | 204° |
| 2026-05-07 10:31 | 40.60935 | 12.13123 | 39022 ft | 404 kts | 204° |
| 2026-05-07 10:31 | 40.55475 | 12.11561 | 39024 ft | 404 kts | 204° |
| 2026-05-07 10:32 | 40.49984 | 12.09993 | 39022 ft | 404 kts | 204° |
| 2026-05-07 10:32 | 40.44496 | 12.08430 | 39014 ft | 403 kts | 205° |
| 2026-05-07 10:33 | 40.39022 | 12.06872 | 39016 ft | 402 kts | 205° |
| 2026-05-07 10:33 | 40.33554 | 12.05318 | 39018 ft | 402 kts | 205° |
| 2026-05-07 10:34 | 40.28082 | 12.03766 | 38994 ft | 402 kts | 205° |
| 2026-05-07 10:34 | 40.23547 | 12.02483 | 39006 ft | 400 kts | 205° |
| 2026-05-07 10:35 | 40.18106 | 12.00945 | 39011 ft | 400 kts | 205° |
| 2026-05-07 10:35 | 40.11790 | 11.99162 | 39013 ft | 399 kts | 205° |
| 2026-05-07 10:36 | 40.07244 | 11.97881 | 39011 ft | 398 kts | 205° |
| 2026-05-07 10:36 | 40.01855 | 11.96364 | 39010 ft | 398 kts | 205° |
| 2026-05-07 10:37 | 39.96442 | 11.94843 | 39011 ft | 398 kts | 205° |
| 2026-05-07 10:37 | 39.91030 | 11.93325 | 39005 ft | 397 kts | 205° |
| 2026-05-07 10:38 | 39.85616 | 11.91809 | 38966 ft | 397 kts | 205° |
| 2026-05-07 10:38 | 39.80226 | 11.90303 | 38989 ft | 396 kts | 206° |
| 2026-05-07 10:39 | 39.74834 | 11.88798 | 39005 ft | 396 kts | 206° |
| 2026-05-07 10:39 | 39.69440 | 11.87295 | 39002 ft | 396 kts | 206° |
| 2026-05-07 10:40 | 39.64088 | 11.85805 | 38963 ft | 396 kts | 206° |
| 2026-05-07 10:40 | 39.58709 | 11.84313 | 38984 ft | 395 kts | 206° |
| 2026-05-07 10:41 | 39.53341 | 11.82824 | 38994 ft | 394 kts | 206° |
| 2026-05-07 10:41 | 39.47986 | 11.81341 | 38991 ft | 394 kts | 206° |
| 2026-05-07 10:42 | 39.42626 | 11.79859 | 38955 ft | 393 kts | 206° |
| 2026-05-07 10:42 | 39.37292 | 11.78388 | 38975 ft | 392 kts | 206° |
| 2026-05-07 10:43 | 39.31956 | 11.76917 | 38978 ft | 391 kts | 206° |
| 2026-05-07 10:43 | 39.26636 | 11.75453 | 38980 ft | 391 kts | 206° |
| 2026-05-07 10:44 | 39.21322 | 11.73993 | 38983 ft | 390 kts | 206° |
| 2026-05-07 10:44 | 39.16013 | 11.72537 | 38971 ft | 389 kts | 206° |
| 2026-05-07 10:45 | 39.10718 | 11.71087 | 38979 ft | 389 kts | 206° |
| 2026-05-07 10:45 | 39.05427 | 11.69639 | 38974 ft | 389 kts | 206° |
| 2026-05-07 10:46 | 39.00165 | 11.68201 | 38973 ft | 389 kts | 206° |
| 2026-05-07 10:46 | 38.94874 | 11.66759 | 38973 ft | 389 kts | 206° |
| 2026-05-07 10:47 | 38.89585 | 11.65319 | 38967 ft | 388 kts | 206° |
| 2026-05-07 10:47 | 38.84297 | 11.63882 | 38971 ft | 388 kts | 206° |
| 2026-05-07 10:48 | 38.79010 | 11.62447 | 38964 ft | 388 kts | 206° |
| 2026-05-07 10:48 | 38.73732 | 11.61018 | 38962 ft | 387 kts | 206° |
| 2026-05-07 10:49 | 38.68466 | 11.59593 | 38967 ft | 387 kts | 205° |
| 2026-05-07 10:49 | 38.63206 | 11.58171 | 38959 ft | 387 kts | 205° |
| 2026-05-07 10:50 | 38.57936 | 11.56749 | 38957 ft | 387 kts | 205° |
| 2026-05-07 10:50 | 38.52672 | 11.55331 | 38939 ft | 386 kts | 205° |
| 2026-05-07 10:51 | 38.47409 | 11.53915 | 38949 ft | 386 kts | 205° |
| 2026-05-07 10:51 | 38.42143 | 11.52500 | 38952 ft | 387 kts | 205° |
| 2026-05-07 10:52 | 38.36908 | 11.51095 | 38948 ft | 387 kts | 205° |
| 2026-05-07 10:52 | 38.31631 | 11.49682 | 38920 ft | 388 kts | 205° |
| 2026-05-07 10:53 | 38.26341 | 11.48268 | 38943 ft | 389 kts | 205° |
| 2026-05-07 10:53 | 38.21034 | 11.46850 | 38953 ft | 390 kts | 205° |
| 2026-05-07 10:54 | 38.15709 | 11.45430 | 38950 ft | 392 kts | 205° |
| 2026-05-07 10:54 | 38.10350 | 11.44004 | 38948 ft | 394 kts | 205° |
| 2026-05-07 10:55 | 38.04961 | 11.42572 | 38939 ft | 396 kts | 205° |
| 2026-05-07 10:55 | 37.99596 | 11.41148 | 38947 ft | 397 kts | 205° |
| 2026-05-07 10:56 | 37.94173 | 11.39711 | 38945 ft | 398 kts | 205° |
| 2026-05-07 10:56 | 37.88777 | 11.38191 | 38942 ft | 396 kts | 206° |
| 2026-05-07 10:57 | 37.83417 | 11.36572 | 38942 ft | 396 kts | 206° |
| 2026-05-07 10:57 | 37.78059 | 11.34962 | 38938 ft | 395 kts | 206° |
| 2026-05-07 10:58 | 37.72705 | 11.33370 | 38938 ft | 395 kts | 206° |
| 2026-05-07 10:58 | 37.70032 | 11.32576 | 38781 ft | 397 kts | 206° |
| 2026-05-07 10:58 | 37.67337 | 11.31777 | 38528 ft | 396 kts | 206° |
| 2026-05-07 10:59 | 37.64668 | 11.30991 | 38245 ft | 392 kts | 206° |
| 2026-05-07 10:59 | 37.62027 | 11.30212 | 37935 ft | 388 kts | 206° |
| 2026-05-07 10:59 | 37.59398 | 11.29434 | 37670 ft | 388 kts | 206° |
| 2026-05-07 10:59 | 37.56778 | 11.28658 | 37401 ft | 387 kts | 206° |
| 2026-05-07 11:00 | 37.54151 | 11.27879 | 37143 ft | 387 kts | 206° |
| 2026-05-07 11:00 | 37.51526 | 11.27101 | 36898 ft | 388 kts | 205° |
| 2026-05-07 11:00 | 37.48897 | 11.26321 | 36625 ft | 389 kts | 205° |
| 2026-05-07 11:00 | 37.46288 | 11.25549 | 36374 ft | 390 kts | 205° |
| 2026-05-07 11:01 | 37.45919 | 11.25440 | 36338 ft | 390 kts | 205° |
| 2026-05-07 11:01 | 37.43564 | 11.24745 | 36102 ft | 390 kts | 205° |
| 2026-05-07 11:02 | 37.40915 | 11.23964 | 35810 ft | 390 kts | 205° |
| 2026-05-07 11:02 | 37.38271 | 11.23184 | 35561 ft | 391 kts | 204° |
| 2026-05-07 11:02 | 37.35627 | 11.22404 | 35318 ft | 392 kts | 204° |
| 2026-05-07 11:02 | 37.32964 | 11.21619 | 35078 ft | 393 kts | 204° |
| 2026-05-07 11:03 | 37.30300 | 11.20835 | 34839 ft | 394 kts | 204° |
| 2026-05-07 11:03 | 37.27617 | 11.20045 | 34601 ft | 396 kts | 204° |
| 2026-05-07 11:03 | 37.24930 | 11.19255 | 34366 ft | 397 kts | 204° |
| 2026-05-07 11:03 | 37.22240 | 11.18465 | 34134 ft | 398 kts | 203° |
| 2026-05-07 11:04 | 37.19536 | 11.17672 | 33902 ft | 399 kts | 203° |
| 2026-05-07 11:04 | 37.16826 | 11.16878 | 33603 ft | 400 kts | 203° |
| 2026-05-07 11:04 | 37.14112 | 11.16084 | 33339 ft | 401 kts | 203° |
| 2026-05-07 11:04 | 37.11391 | 11.15288 | 33079 ft | 401 kts | 202° |
| 2026-05-07 11:05 | 37.08672 | 11.14493 | 32676 ft | 401 kts | 202° |
| 2026-05-07 11:05 | 37.05961 | 11.13701 | 32004 ft | 400 kts | 202° |
| 2026-05-07 11:05 | 37.03246 | 11.12909 | 31278 ft | 401 kts | 202° |
| 2026-05-07 11:05 | 37.00528 | 11.12115 | 30560 ft | 402 kts | 202° |
| 2026-05-07 11:06 | 36.97800 | 11.11318 | 29786 ft | 403 kts | 201° |
| 2026-05-07 11:06 | 36.95095 | 11.10528 | 28855 ft | 405 kts | 201° |
| 2026-05-07 11:06 | 36.92358 | 11.09733 | 28271 ft | 401 kts | 201° |
| 2026-05-07 11:06 | 36.89650 | 11.08948 | 27634 ft | 396 kts | 201° |
| 2026-05-07 11:07 | 36.86983 | 11.08150 | 27044 ft | 394 kts | 201° |
| 2026-05-07 11:07 | 36.84290 | 11.07310 | 26452 ft | 403 kts | 201° |
| 2026-05-07 11:07 | 36.81565 | 11.06456 | 25831 ft | 404 kts | 201° |
| 2026-05-07 11:07 | 36.78852 | 11.05615 | 25238 ft | 400 kts | 201° |
| 2026-05-07 11:08 | 36.76161 | 11.04784 | 24643 ft | 397 kts | 200° |
| 2026-05-07 11:08 | 36.73487 | 11.03961 | 24056 ft | 395 kts | 200° |
| 2026-05-07 11:08 | 36.70826 | 11.03142 | 23441 ft | 393 kts | 200° |
| 2026-05-07 11:08 | 36.68171 | 11.02333 | 22756 ft | 393 kts | 200° |
| 2026-05-07 11:09 | 36.65515 | 11.01535 | 22172 ft | 391 kts | 199° |
| 2026-05-07 11:09 | 36.62873 | 11.00746 | 21591 ft | 388 kts | 199° |
| 2026-05-07 11:09 | 36.60256 | 10.99966 | 21012 ft | 385 kts | 199° |
| 2026-05-07 11:09 | 36.57661 | 10.99191 | 20460 ft | 381 kts | 199° |
| 2026-05-07 11:10 | 36.55086 | 10.98421 | 19910 ft | 378 kts | 199° |
| 2026-05-07 11:10 | 36.52540 | 10.97659 | 19360 ft | 375 kts | 199° |
| 2026-05-07 11:10 | 36.50044 | 10.96911 | 18797 ft | 373 kts | 199° |
| 2026-05-07 11:10 | 36.47528 | 10.96158 | 18236 ft | 370 kts | 199° |
| 2026-05-07 11:11 | 36.45037 | 10.95414 | 17636 ft | 367 kts | 199° |
| 2026-05-07 11:11 | 36.42570 | 10.94676 | 17067 ft | 363 kts | 199° |
| 2026-05-07 11:11 | 36.40128 | 10.93947 | 16523 ft | 359 kts | 199° |
| 2026-05-07 11:11 | 36.37711 | 10.93226 | 15994 ft | 355 kts | 199° |
| 2026-05-07 11:12 | 36.35320 | 10.92506 | 15478 ft | 351 kts | 201° |
| 2026-05-07 11:12 | 36.33160 | 10.91259 | 14956 ft | 338 kts | 219° |
| 2026-05-07 11:12 | 36.31422 | 10.89358 | 14464 ft | 330 kts | 232° |
| 2026-05-07 11:12 | 36.30090 | 10.87075 | 13979 ft | 326 kts | 238° |
| 2026-05-07 11:13 | 36.28870 | 10.84711 | 13421 ft | 325 kts | 239° |
| 2026-05-07 11:13 | 36.27673 | 10.82348 | 12875 ft | 323 kts | 239° |
| 2026-05-07 11:13 | 36.26480 | 10.80004 | 12353 ft | 320 kts | 239° |
| 2026-05-07 11:13 | 36.25288 | 10.77683 | 11825 ft | 318 kts | 239° |
| 2026-05-07 11:14 | 36.24100 | 10.75386 | 11331 ft | 315 kts | 239° |
| 2026-05-07 11:14 | 36.22917 | 10.73109 | 10838 ft | 313 kts | 239° |
| 2026-05-07 11:14 | 36.21755 | 10.70880 | 10673 ft | 302 kts | 239° |
| 2026-05-07 11:14 | 36.20627 | 10.68721 | 10509 ft | 293 kts | 239° |
| 2026-05-07 11:15 | 36.19538 | 10.66641 | 10371 ft | 282 kts | 239° |
| 2026-05-07 11:15 | 36.18490 | 10.64638 | 10258 ft | 272 kts | 239° |
| 2026-05-07 11:15 | 36.17492 | 10.62734 | 10130 ft | 262 kts | 239° |
| 2026-05-07 11:15 | 36.16505 | 10.60855 | 10038 ft | 252 kts | 240° |
| 2026-05-07 11:16 | 36.15581 | 10.59097 | 9968 ft | 242 kts | 240° |
| 2026-05-07 11:16 | 36.14653 | 10.57328 | 9700 ft | 241 kts | 240° |
| 2026-05-07 11:16 | 36.13756 | 10.55619 | 9409 ft | 239 kts | 240° |
| 2026-05-07 11:16 | 36.12847 | 10.53887 | 9128 ft | 242 kts | 240° |
| 2026-05-07 11:17 | 36.11922 | 10.52126 | 8856 ft | 245 kts | 240° |
| 2026-05-07 11:17 | 36.10993 | 10.50357 | 8546 ft | 245 kts | 239° |
| 2026-05-07 11:17 | 36.10062 | 10.48591 | 8251 ft | 244 kts | 239° |
| 2026-05-07 11:17 | 36.09136 | 10.46833 | 7961 ft | 243 kts | 240° |
| 2026-05-07 11:18 | 36.08216 | 10.45088 | 7671 ft | 242 kts | 239° |
| 2026-05-07 11:18 | 36.07305 | 10.43336 | 7393 ft | 243 kts | 243° |
| 2026-05-07 11:18 | 36.06557 | 10.41463 | 7143 ft | 244 kts | 248° |
| 2026-05-07 11:18 | 36.05872 | 10.39524 | 6856 ft | 246 kts | 249° |
| 2026-05-07 11:19 | 36.05201 | 10.37585 | 6574 ft | 245 kts | 251° |
| 2026-05-07 11:19 | 36.04621 | 10.35612 | 6284 ft | 244 kts | 253° |
| 2026-05-07 11:19 | 36.04069 | 10.33634 | 5985 ft | 243 kts | 253° |
| 2026-05-07 11:19 | 36.03527 | 10.31681 | 5707 ft | 243 kts | 253° |
| 2026-05-07 11:20 | 36.02975 | 10.29688 | 5453 ft | 247 kts | 253° |
| 2026-05-07 11:20 | 36.02415 | 10.27674 | 5197 ft | 247 kts | 253° |
| 2026-05-07 11:20 | 36.01931 | 10.25695 | 5086 ft | 236 kts | 265° |
| 2026-05-07 11:20 | 36.01933 | 10.23710 | 4988 ft | 226 kts | 273° |
| 2026-05-07 11:21 | 36.01986 | 10.21802 | 4894 ft | 218 kts | 273° |
| 2026-05-07 11:21 | 36.02030 | 10.19967 | 4822 ft | 212 kts | 273° |
| 2026-05-07 11:21 | 36.02083 | 10.18148 | 4752 ft | 212 kts | 279° |
| 2026-05-07 11:21 | 36.02644 | 10.16504 | 4605 ft | 207 kts | 313° |
| 2026-05-07 11:22 | 36.03835 | 10.15626 | 4403 ft | 199 kts | 348° |
| 2026-05-07 11:22 | 36.05189 | 10.15610 | 4228 ft | 192 kts | 2° |
| 2026-05-07 11:22 | 36.06064 | 10.15706 | 4069 ft | 190 kts | 7° |
| 2026-05-07 11:22 | 36.07214 | 10.16427 | 3914 ft | 193 kts | 49° |
| 2026-05-07 11:23 | 36.07652 | 10.18015 | 3761 ft | 203 kts | 83° |
| 2026-05-07 11:23 | 36.07707 | 10.19770 | 3478 ft | 204 kts | 85° |
| 2026-05-07 11:23 | 36.07722 | 10.21498 | 3219 ft | 199 kts | 87° |
| 2026-05-07 11:23 | 36.07713 | 10.23188 | 2960 ft | 194 kts | 86° |
| 2026-05-07 11:24 | 36.07703 | 10.24845 | 2703 ft | 191 kts | 86° |
| 2026-05-07 11:24 | 36.07690 | 10.26462 | 2451 ft | 186 kts | 86° |
| 2026-05-07 11:24 | 36.07678 | 10.28042 | 2207 ft | 182 kts | 87° |
| 2026-05-07 11:24 | 36.07666 | 10.29573 | 1971 ft | 172 kts | 87° |
| 2026-05-07 11:25 | 36.07655 | 10.31004 | 1768 ft | 162 kts | 86° |
| 2026-05-07 11:25 | 36.07645 | 10.32332 | 1531 ft | 149 kts | 85° |
| 2026-05-07 11:25 | 36.07639 | 10.33620 | 1340 ft | 153 kts | 86° |
| 2026-05-07 11:25 | 36.07630 | 10.34927 | 1141 ft | 149 kts | 86° |
| 2026-05-07 11:26 | 36.07621 | 10.36194 | 932 ft | 145 kts | 86° |
| 2026-05-07 11:26 | 36.07613 | 10.37411 | 726 ft | 139 kts | 87° |
| 2026-05-07 11:26 | 36.07593 | 10.38598 | 581 ft | 140 kts | 88° |
| 2026-05-07 11:26 | 36.07589 | 10.39819 | 443 ft | 142 kts | 86° |
| 2026-05-07 11:27 | 36.07596 | 10.41046 | 235 ft | 142 kts | 89° |
| 2026-05-07 11:27 | 36.07583 | 10.42248 | 81 ft | 138 kts | 89° |
| 2026-05-07 11:27 | 36.07579 | 10.43372 | 29 ft | 113 kts | 89° |
| 2026-05-07 11:27 | 36.07572 | 10.44069 | 30 ft | 49 kts | 88° |
| 2026-05-07 11:28 | 36.07627 | 10.44295 | 30 ft | 22 kts | 64° |
| 2026-05-07 11:28 | 36.07664 | 10.44391 | 30 ft | 8 kts | 63° |
| 2026-05-07 11:28 | 36.07690 | 10.44448 | 31 ft | 8 kts | 60° |
| 2026-05-07 11:28 | 36.07716 | 10.44505 | 31 ft | 7 kts | 60° |
| 2026-05-07 11:29 | 36.07736 | 10.44574 | 30 ft | 11 kts | 73° |
| 2026-05-07 11:29 | 36.07817 | 10.44627 | 28 ft | 18 kts | 0° |
| 2026-05-07 11:29 | 36.07946 | 10.44628 | 28 ft | 17 kts | 1° |
| 2026-05-07 11:29 | 36.08018 | 10.44624 | 26 ft | 9 kts | 339° |
| 2026-05-07 11:30 | 36.08074 | 10.44567 | 25 ft | 14 kts | 317° |
| 2026-05-07 11:30 | 36.08166 | 10.44455 | 22 ft | 18 kts | 315° |
| 2026-05-07 11:30 | 36.08229 | 10.44351 | 19 ft | 15 kts | 291° |
| 2026-05-07 11:30 | 36.08231 | 10.44225 | 20 ft | 15 kts | 253° |
| 2026-05-07 11:31 | 36.08189 | 10.44141 | 18 ft | 3 kts | 230° |
| 2026-05-07 11:31 | 36.08178 | 10.44115 | 18 ft | 4 kts | 241° |
| 2026-05-07 11:31 | 36.08159 | 10.44090 | 19 ft | 6 kts | 216° |
| 2026-05-07 11:31 | 36.08102 | 10.44032 | 22 ft | 12 kts | 225° |
| 2026-05-07 11:32 | 36.08100 | 10.43904 | 15 ft | 7 kts | 5° |
| 2026-05-07 11:32 | 36.08131 | 10.43905 | 15 ft | 2 kts | 1° |
| 2026-05-07 11:32 | 36.08132 | 10.43905 | 15 ft | 0 kts | 1° |